Latest Weather Observations for Brisbane Airport

IDQ60901

Issued at 7:35 pm EST Monday 20 October 2014 (issued every 10 minutes, with the page automatically refreshed every 10 minutes)

About weather observations | Map of Brisbane area stations | Latest observations for Brisbane area | Other Formats
Station Details ID: 040842 Name: BRISBANE AERO Lat: -27.39 Lon: 153.13 Height: 4.51 m
Data from the previous 72 hours. | See also: Recent months at Brisbane Airport
Date/Time
EST
Tmp

°C
App
Tmp
°C
Dew
Point
°C
Rel
Hum
%
Delta-T

°C
Wind Press
QNH
hPa
Press
MSL
hPa
Rain
since
9 am
mm
Dir
 
Spd
km/h
Gust
km/h
Spd
kts
Gust
kts
20/07:30pm 20.5 19.7 12.9 61 4.3 E 9 13 5 7 1025.6 - 0.0
20/07:00pm 20.7 19.8 12.5 59 4.6 E 9 17 5 9 1025.0 - 0.0
20/06:30pm 20.7 19.5 12.9 61 4.4 ENE 11 17 6 9 1024.4 - 0.0
20/06:00pm 21.0 19.4 12.7 59 4.7 ENE 13 19 7 10 1023.9 1023.8 0.0
20/05:30pm 21.5 19.9 12.9 58 4.9 ENE 13 20 7 11 1023.2 - 0.0
20/05:00pm 22.1 20.7 13.4 57 5.0 NE 13 19 7 10 1022.7 - 0.0
20/04:30pm 22.4 20.3 13.6 57 5.1 NNE 17 24 9 13 1022.5 - 0.0
20/04:00pm 22.8 20.6 13.2 54 5.5 NE 17 24 9 13 1022.2 - 0.0
20/03:30pm 22.8 20.1 13.4 55 5.4 NE 20 28 11 15 1022.0 - 0.0
20/03:00pm 23.3 20.5 13.2 53 5.8 NE 20 28 11 15 1021.9 1021.9 0.0
20/02:30pm 23.7 20.9 13.1 51 6.1 NNE 20 28 11 15 1022.0 - 0.0
20/02:00pm 23.8 20.3 12.2 48 6.6 NNE 22 30 12 16 1022.2 - 0.0
20/01:30pm 24.0 20.9 12.2 47 6.7 NE 20 28 11 15 1022.7 - 0.0
20/01:00pm 23.8 20.4 11.3 45 7.0 NNE 20 28 11 15 1022.9 - 0.0
20/12:30pm 23.2 20.0 11.8 48 6.4 NNE 20 26 11 14 1023.5 - 0.0
20/12:00pm 22.8 19.8 11.9 50 6.1 NNE 19 26 10 14 1023.9 1023.8 0.0
20/11:30am 23.6 20.6 11.9 47 6.6 N 19 26 10 14 1024.3 - 0.0
20/11:00am 23.1 19.7 10.5 45 6.9 N 19 26 10 14 1024.7 - 0.0
20/10:30am 22.7 20.0 11.6 49 6.2 NNE 17 22 9 12 1025.2 - 0.0
20/10:00am 22.2 20.0 12.0 52 5.7 NNE 15 22 8 12 1025.6 - 0.0
20/09:30am 22.5 20.2 11.8 50 6.0 N 15 24 8 13 1025.6 - 0.0
20/09:00am 22.0 20.4 12.8 56 5.2 NNE 13 22 7 12 1025.8 1025.7 0.0
20/08:30am 21.7 19.9 12.0 54 5.4 NNE 13 17 7 9 1025.8 - 0.0
20/08:00am 21.1 20.4 12.1 56 5.0 E 7 11 4 6 1025.8 - 0.0
20/07:30am 19.9 18.3 11.7 59 4.5 SW 11 13 6 7 1025.7 - 0.0
20/07:00am 18.3 16.4 11.7 65 3.6 SSW 13 15 7 8 1025.6 - 0.0
20/06:30am 16.5 14.9 11.7 73 2.6 SSW 11 15 6 8 1025.3 - 0.0
20/06:00am 14.8 12.5 11.8 82 1.6 SSW 15 19 8 10 1025.2 1025.1 0.0
20/05:30am 13.8 11.7 11.3 85 1.3 SSW 13 17 7 9 1024.9 - 0.0
20/05:00am 14.5 12.5 11.5 82 1.6 SSW 13 15 7 8 1024.6 - 0.0
20/04:30am 14.3 12.7 11.7 84 1.4 SSW 11 13 6 7 1024.6 - 0.0
20/04:00am 14.7 12.8 11.7 82 1.6 SSW 13 15 7 8 1024.5 - 0.0
20/03:30am 15.3 13.8 12.0 81 1.8 SSW 11 13 6 7 1024.4 - 0.0
20/03:00am 14.4 13.2 11.6 83 1.5 SSW 9 11 5 6 1024.3 1024.2 0.0
20/02:30am 15.0 14.7 11.6 80 1.8 E 4 7 2 4 1024.5 - 0.0
20/02:00am 17.5 16.8 12.0 70 3.0 ENE 7 9 4 5 1024.7 - 0.0
20/01:30am 18.7 18.1 12.2 66 3.6 ENE 7 9 4 5 1024.9 - 0.0
20/01:00am 19.2 18.6 12.4 64 3.8 ENE 7 9 4 5 1025.4 - 0.0
20/12:30am 19.4 18.6 12.8 65 3.7 ENE 9 11 5 6 1025.7 - 0.0
20/12:00am 19.1 18.8 12.6 66 3.6 ENE 6 7 3 4 1025.8 1025.7 0.0
 
Date/Time
EST
Tmp

°C
App
Tmp
°C
Dew
Point
°C
Rel
Hum
%
Delta-T

°C
Wind Press
QNH
hPa
Press
MSL
hPa
Rain
since
9 am
mm
Dir
 
Spd
km/h
Gust
km/h
Spd
kts
Gust
kts
19/11:30pm 19.1 18.5 11.8 62 4.0 ENE 6 9 3 5 1026.2 - 0.0
19/11:00pm 19.4 18.2 11.5 60 4.3 ENE 9 15 5 8 1026.4 - 0.0
19/10:30pm 19.5 18.3 11.7 60 4.3 ENE 9 15 5 8 1026.5 - 0.0
19/10:00pm 19.6 18.0 11.4 59 4.5 E 11 17 6 9 1026.5 - 0.0
19/09:30pm 19.7 18.0 11.3 58 4.6 E 11 19 6 10 1026.5 - 0.0
19/09:00pm 19.7 17.8 11.7 60 4.4 E 13 22 7 12 1026.2 1026.1 0.0
19/08:30pm 19.7 17.7 11.5 59 4.5 E 13 20 7 11 1026.3 - 0.0
19/08:00pm 19.9 17.8 11.1 57 4.8 E 13 20 7 11 1026.1 - 0.0
19/07:30pm 19.9 17.7 10.9 56 4.9 E 13 22 7 12 1025.9 - 0.0
19/07:00pm 20.0 17.5 11.0 56 4.9 E 15 19 8 10 1025.7 - 0.0
19/06:30pm 20.4 18.3 9.9 51 5.6 E 11 19 6 10 1025.2 - 0.0
19/06:00pm 20.5 17.8 10.5 52 5.4 ESE 15 24 8 13 1024.8 1024.7 0.0
19/05:30pm 20.9 18.6 10.6 51 5.6 E 13 22 7 12 1024.4 - 0.0
19/05:00pm 21.4 18.4 10.8 50 5.8 ESE 17 26 9 14 1024.1 - 0.0
19/04:30pm 21.7 18.3 10.7 49 6.0 ESE 19 32 10 17 1023.8 - 0.0
19/04:00pm 22.2 19.4 11.2 49 6.1 ESE 17 28 9 15 1023.7 - 0.0
19/03:30pm 22.3 19.2 11.5 50 6.0 ESE 19 33 10 18 1023.6 - 0.0
19/03:00pm 23.7 20.4 11.6 46 6.8 ESE 20 32 11 17 1023.6 1023.5 0.0
19/02:30pm 23.2 19.4 11.1 46 6.7 ESE 22 33 12 18 1024.0 - 0.0
19/02:00pm 23.3 19.3 11.9 48 6.4 ESE 24 37 13 20 1024.2 - 0.0
19/01:30pm 23.0 19.6 11.3 47 6.5 ESE 20 33 11 18 1024.6 - 0.0
19/01:00pm 24.4 21.9 12.3 46 6.9 ESE 17 26 9 14 1025.0 - 0.0
19/12:30pm 23.4 20.1 11.6 47 6.6 E 20 30 11 16 1025.4 - 0.0
19/12:00pm 23.8 20.4 11.2 45 7.0 E 20 30 11 16 1025.8 1025.7 0.0
19/11:30am 23.9 20.7 11.1 44 7.2 ESE 19 28 10 15 1026.1 - 0.0
19/11:00am 24.2 21.7 10.9 43 7.4 ESE 15 26 8 14 1026.6 - 0.0
19/10:30am 23.2 20.2 10.6 45 7.0 ESE 17 26 9 14 1026.9 - 0.0
19/10:00am 23.1 20.1 10.7 45 6.9 ESE 17 26 9 14 1027.4 - 0.0
19/09:30am 22.9 19.6 9.5 42 7.2 SE 17 26 9 14 1027.7 - 0.0
19/09:00am 22.4 18.7 9.3 43 7.0 ESE 19 26 10 14 1027.8 1027.7 0.0
19/08:30am 22.6 20.0 10.8 47 6.5 SE 15 26 8 14 1027.9 - 0.0
19/08:00am 21.3 19.6 11.1 52 5.6 S 11 15 6 8 1027.8 - 0.0
19/07:30am 20.1 18.2 11.8 59 4.6 SSW 13 19 7 10 1027.7 - 0.0
19/07:00am 18.8 16.9 11.7 63 3.9 SSW 13 17 7 9 1027.6 - 0.0
19/06:30am 17.3 15.5 12.2 72 2.8 SSW 13 17 7 9 1027.1 - 0.0
19/06:00am 15.4 13.7 12.3 82 1.7 SSW 13 17 7 9 1026.8 1026.7 0.0
19/05:30am 15.0 13.4 11.4 79 1.9 SSW 11 15 6 8 1026.6 - 0.0
19/05:00am 14.5 12.9 11.5 82 1.6 SSW 11 15 6 8 1026.1 - 0.0
19/04:30am 14.8 13.2 11.4 80 1.8 SSW 11 15 6 8 1025.9 - 0.0
19/04:00am 16.1 14.6 12.0 76 2.2 SSW 11 15 6 8 1025.8 - 0.0
19/03:30am 17.4 16.1 12.5 73 2.7 S 11 15 6 8 1025.6 - 0.0
19/03:00am 16.7 15.4 12.5 76 2.3 SSW 11 15 6 8 1025.6 1025.5 0.0
19/02:30am 17.0 15.8 12.7 76 2.4 S 11 17 6 9 1025.6 - 0.0
19/02:00am 17.8 16.2 12.8 72 2.8 S 13 19 7 10 1025.6 - 0.0
19/01:30am 17.8 16.3 13.0 73 2.7 S 13 20 7 11 1025.7 - 0.0
19/01:00am 17.5 16.0 13.0 75 2.5 S 13 19 7 10 1026.1 - 0.0
19/12:30am 17.7 16.2 13.0 74 2.6 SSE 13 19 7 10 1026.4 - 0.0
19/12:00am 17.3 15.3 12.8 75 2.5 S 15 24 8 13 1026.6 1026.5 0.0
 
Date/Time
EST
Tmp

°C
App
Tmp
°C
Dew
Point
°C
Rel
Hum
%
Delta-T

°C
Wind Press
QNH
hPa
Press
MSL
hPa
Rain
since
9 am
mm
Dir
 
Spd
km/h
Gust
km/h
Spd
kts
Gust
kts
18/11:30pm 17.8 16.3 13.0 73 2.7 SSE 13 24 7 13 1026.9 - 0.0
18/11:00pm 18.2 17.1 13.2 72 2.8 S 11 19 6 10 1027.0 - 0.0
18/10:30pm 18.4 17.4 13.4 72 2.8 S 11 17 6 9 1027.1 - 0.0
18/10:00pm 18.8 18.3 13.7 72 2.9 SSE 9 19 5 10 1027.1 - 0.0
18/09:30pm 19.6 18.2 13.4 67 3.5 SSE 13 20 7 11 1027.2 - 0.0
18/09:00pm 20.0 18.1 13.1 64 3.9 SE 15 24 8 13 1027.0 1026.9 0.0
18/08:30pm 20.1 18.7 13.4 65 3.8 SSE 13 22 7 12 1026.8 - 0.0
18/08:00pm 20.1 18.5 14.0 68 3.5 SE 15 22 8 12 1026.7 - 0.0
18/07:30pm 20.0 17.5 14.1 69 3.4 ESE 20 35 11 19 1026.6 - 0.0
18/07:00pm 19.8 17.3 14.1 69 3.3 ESE 20 35 11 19 1026.2 - 0.0
18/06:30pm 20.1 17.8 14.6 70 3.2 E 20 32 11 17 1025.8 - 0.0
18/06:00pm 20.0 17.8 15.0 73 2.9 E 20 33 11 18 1025.4 1025.3 0.0
18/05:30pm 19.9 16.8 14.4 70 3.2 ESE 24 37 13 20 1024.8 - 0.0
18/05:00pm 20.4 17.2 14.2 67 3.6 ESE 24 37 13 20 1024.4 - 0.0
18/04:30pm 20.9 17.3 13.0 60 4.5 ESE 24 41 13 22 1024.0 - 0.0
18/04:00pm 22.0 18.8 14.3 61 4.5 ESE 24 39 13 21 1023.8 - 0.0
18/03:30pm 22.2 19.6 13.9 59 4.8 ESE 20 33 11 18 1023.7 - 0.0
18/03:00pm 22.3 18.9 13.6 58 5.0 ESE 24 39 13 21 1023.6 1023.5 0.0
18/02:30pm 23.3 19.6 12.8 51 6.0 ESE 24 41 13 22 1023.7 - 0.0
18/02:00pm 22.8 18.8 13.0 54 5.6 ESE 26 41 14 22 1023.9 - 0.0
18/01:30pm 23.4 19.6 12.3 49 6.3 ESE 24 35 13 19 1024.0 - 0.0
18/01:00pm 23.9 20.6 12.7 49 6.4 ESE 22 33 12 18 1024.3 - 0.0
18/12:30pm 24.1 19.9 12.5 48 6.6 E 26 37 14 20 1024.5 - 0.0
18/12:00pm 23.5 19.8 12.6 50 6.2 E 24 39 13 21 1024.8 1024.7 0.0
18/11:30am 23.7 19.8 12.2 48 6.5 E 24 37 13 20 1025.2 - 0.0
18/11:00am 24.1 21.0 12.3 47 6.7 E 20 37 11 20 1025.3 - 0.0
18/10:30am 23.4 20.2 11.8 48 6.5 ESE 20 35 11 19 1025.6 - 0.0
18/10:00am 23.3 19.7 10.6 44 7.0 ESE 20 32 11 17 1025.7 - 0.0
18/09:30am 23.5 19.8 10.1 42 7.3 ESE 20 32 11 17 1025.9 - 0.0
18/09:00am 23.4 19.8 10.7 44 7.0 ESE 20 30 11 16 1026.0 1025.9 0.0
18/08:30am 21.4 18.9 11.2 52 5.6 SE 15 24 8 13 1025.9 - 0.0
18/08:00am 21.0 18.1 10.9 52 5.5 SSE 17 26 9 14 1025.8 - 0.0
18/07:30am 20.4 17.6 11.5 56 4.9 S 17 22 9 12 1025.7 - 0.0
18/07:00am 19.2 16.9 11.7 62 4.1 S 15 20 8 11 1025.3 - 0.0
18/06:30am 17.7 15.4 11.8 68 3.2 SSW 15 19 8 10 1024.9 - 0.0
18/06:00am 16.1 13.6 12.4 79 2.0 SSW 17 19 9 10 1024.6 1024.5 0.0
18/05:30am 15.2 12.9 11.7 79 1.9 SSW 15 20 8 11 1024.3 - 0.0
18/05:00am 15.0 12.6 11.4 79 1.9 SSW 15 19 8 10 1024.0 - 0.0
18/04:30am 15.0 13.0 11.4 79 1.9 SSW 13 15 7 8 1023.6 - 0.0
18/04:00am 14.7 12.7 11.5 81 1.7 SSW 13 17 7 9 1023.1 - 0.0
18/03:30am 15.4 13.4 11.5 77 2.1 SSW 13 19 7 10 1022.8 - 0.0
18/03:00am 17.9 15.3 10.8 63 3.8 S 15 24 8 13 1022.5 1022.5 0.0
18/02:30am 17.8 15.3 10.9 64 3.7 S 15 26 8 14 1022.4 - 0.0
18/02:00am 18.1 15.4 11.7 66 3.5 S 17 28 9 15 1022.3 - 0.0
18/01:30am 18.5 16.1 12.6 68 3.3 SSE 17 26 9 14 1022.5 - 0.0
18/01:00am 19.0 16.7 12.9 67 3.4 SSE 17 28 9 15 1022.5 - 0.0
18/12:30am 19.1 17.8 13.6 70 3.1 SSE 13 24 7 13 1022.6 - 0.0
18/12:00am 19.4 18.8 13.6 69 3.3 SSE 9 15 5 8 1022.7 1022.7 0.0
 
Date/Time
EST
Tmp

°C
App
Tmp
°C
Dew
Point
°C
Rel
Hum
%
Delta-T

°C
Wind Press
QNH
hPa
Press
MSL
hPa
Rain
since
9 am
mm
Dir
 
Spd
km/h
Gust
km/h
Spd
kts
Gust
kts
17/11:30pm 19.9 18.7 14.0 69 3.4 SE 13 19 7 10 1022.7 - 0.0
17/11:00pm 20.0 18.7 13.7 67 3.6 SE 13 20 7 11 1022.7 - 0.0
17/10:30pm 20.2 18.9 13.7 66 3.7 SSE 13 22 7 12 1022.4 - 0.0
17/10:00pm 20.1 18.9 14.0 68 3.5 S 13 26 7 14 1022.2 - 0.0
17/09:30pm 20.1 19.5 14.6 70 3.2 S 11 24 6 13 1022.2 - 0.0
17/09:00pm 20.3 18.7 16.1 77 2.5 S 19 26 10 14 1021.8 1021.8 0.0
17/08:30pm 20.9 20.3 16.6 76 2.6 SSE 15 26 8 14 1021.7 - 0.0
17/08:00pm 21.9 20.8 15.3 66 3.9 ESE 15 26 8 14 1021.4 - 0.0

Latest Capital City Observations: Canberra | Sydney | Melbourne | Brisbane | Adelaide | Perth | Hobart | Darwin

Other Formats:

Comma delimited format used in spreadsheet applications
http://www.bom.gov.au/fwo/IDQ60901/IDQ60901.94578.axf

JavaScript Object Notation format (JSON) in row-major order
http://www.bom.gov.au/fwo/IDQ60901/IDQ60901.94578.json